Biloxi, MS

6:40 PM CDT on March 28, 2017 (GMT -0500)
Forest Cove | | Change Station

Elev 46 ft 30.44 °N, 88.91 °W | Updated 52 seconds ago

Partly Cloudy
Partly Cloudy
75.7 °F
Feels Like 77 °F
N
1.1
Wind Variable Wind from SSE

Today
High -- | Low -- °F
--% Chance of Precip.
Yesterday
High -- | Low -- °F
Precip. -- in
Pressure 29.97 in
Visibility 10.0 miles
Clouds Few 1300 ft
Heat Index 77 °F
Dew Point 68 °F
Humidity 77%
Rainfall 0.00 in
Snow Depth Not available.
6:49 AM 7:12 PM
New Moon, 1% visible
METAR KBIX 282258Z AUTO 18009KT 10SM FEW013 24/21 A2996 RMK AO2 SLP148 T02440210
Pressure 29.97 in
Visibility 10.0 miles
Clouds Few 1300 ft
Heat Index 77 °F
Dew Point 68 °F
Humidity 77%
Rainfall 0.00 in
Snow Depth Not available.
6:49 AM 7:12 PM
New Moon, 1% visible
METAR KBIX 282258Z AUTO 18009KT 10SM FEW013 24/21 A2996 RMK AO2 SLP148 T02440210

Get Severe Weather Alerts

Thanks for signing up!

Be on the lookout for a verification email in your inbox.

You'll start receiving the daily forecast at 8 AM.

×

10-Day Weather Forecast

Almanac

Astronomy

Mar. 28, 2017 Rise Set
Actual Time
Civil Twilight
Nautical Twilight
Astronomical Twilight
Moon
Length of Visible Light
Length of Day
Tomorrow will be .
, % of the Moon is Illuminated

Today's Extremes

State Highs State Lows

Community

WunderPhotos

Upload Photos

1,962,540 photos uploaded!

WunderBlog® & News

Nearby

Air Quality

  Air Quality AQ Index Pollutant
Not available.

Snow Depth

Station Depth Elevation

Earthquake Activity

City Distance Mag. Time & Date
Minimum magnitude displayed is 2.5.

Earthquake Activity

City Distance Mag. Time & Date
Minimum magnitude displayed is 2.5.

Coastal Water Temperatures

Place Temperature

Stations

Nearby Weather Stations

Station Location Temp. Windchill Dew Point Humidity Wind Precip. Elev Updated Type
                   

Watches & Warnings

There are currently no watches in effect.